Time;durP1;ratioP1;P1;durP2;ratioP2;P2;SDS_P1;SDS_P2;PMS_P1;PMS_P2;Temp;Humidity;BMP_temperature;BMP_pressure;BME280_temperature;BME280_humidity;BME280_pressure;Samples;Min_cycle;Max_cycle;Signal;HPM_P1;HPM_P2
2021/03/19 03:43:11;;;;;;;;;;;0.70;99.90;;;;;;13116017;22;19926;-89
2021/03/19 03:48:14;;;;;;;;;;;0.70;99.90;;;;;;13185655;22;20011;-89
2021/03/19 03:53:15;;;;;;;;;;;0.80;99.90;;;;;;13157795;22;19985;-89
2021/03/19 03:58:17;;;;;;;;;;;0.80;99.90;;;;;;13157030;22;19981;-89
2021/03/19 04:03:18;;;;;;;;;;;0.70;99.90;;;;;;13156698;22;19963;-89
2021/03/19 04:08:21;;;;;;;;;;;0.60;99.90;;;;;;13156629;22;19972;-89
2021/03/19 04:13:24;;;;;;;;;;;0.50;99.90;;;;;;13185170;22;19938;-89
2021/03/19 04:18:26;;;;;;;;;;;0.40;99.90;;;;;;13184851;22;19932;-89
2021/03/19 04:23:29;;;;;;;;;;;0.30;99.90;;;;;;13157275;22;19956;-89
2021/03/19 04:28:32;;;;;;;;;;;0.30;99.90;;;;;;13156785;22;20324;-89
2021/03/19 04:33:34;;;;;;;;;;;0.20;99.90;;;;;;13156523;22;20250;-89
2021/03/19 04:38:37;;;;;;;;;;;0.20;99.90;;;;;;13156307;22;19918;-89
2021/03/19 04:43:38;;;;;;;;;;;1.80;99.90;;;;;;13155729;22;19918;-89
2021/03/19 04:48:40;;;;;;;;;;;0.40;99.90;;;;;;13155458;22;19933;-89
2021/03/19 04:53:41;;;;;;;;;;;0.20;99.90;;;;;;13155506;22;20334;-88
2021/03/19 04:58:43;;;;;;;;;;;0.40;99.90;;;;;;13130779;22;19941;-88
2021/03/19 05:03:44;;;;;;;;;;;0.20;99.90;;;;;;13129291;22;19985;-89
2021/03/19 05:08:46;;;;;;;;;;;0.20;99.90;;;;;;13155823;22;19919;-89
2021/03/19 05:13:47;;;;;;;;;;;0.20;99.90;;;;;;13154986;22;19918;-89
2021/03/19 05:18:49;;;;;;;;;;;0.20;99.90;;;;;;13154534;22;19925;-89
2021/03/19 05:23:50;;;;;;;;;;;0.10;99.90;;;;;;13155574;22;20000;-89
2021/03/19 05:28:51;;;;;;;;;;;0.20;99.90;;;;;;13155581;22;19925;-89
2021/03/19 05:33:53;;;;;;;;;;;2.40;99.90;;;;;;13155204;22;20318;-89
2021/03/19 05:38:55;;;;;;;;;;;0.00;99.90;;;;;;13156121;22;19997;-90
2021/03/19 05:44:02;;;;;;;;;;;0.00;99.90;;;;;;13183384;22;19918;-89
2021/03/19 05:49:06;;;;;;;;;;;0.00;99.90;;;;;;13156094;22;19918;-89
2021/03/19 05:54:11;;;;;;;;;;;0.00;99.90;;;;;;13155862;22;19918;-89
2021/03/19 05:59:12;;;;;;;;;;;0.00;99.90;;;;;;13182339;22;19922;-88
2021/03/19 06:04:18;;;;;;;;;;;0.10;99.90;;;;;;13183875;22;19997;-88
2021/03/19 06:09:24;;;;;;;;;;;0.10;99.90;;;;;;13187419;22;19925;-90
2021/03/19 06:14:27;;;;;;;;;;;0.20;99.90;;;;;;13158896;22;19993;-88
2021/03/19 06:19:34;;;;;;;;;;;0.20;99.90;;;;;;13187167;22;19993;-87
2021/03/19 06:24:37;;;;;;;;;;;0.50;99.90;;;;;;13185621;22;20323;-88
2021/03/19 06:29:46;;;;;;;;;;;0.40;99.90;;;;;;13157175;22;19945;-88
2021/03/19 06:35:07;;;;;;;;;;;2.50;99.90;;;;;;13158964;22;19918;-88
2021/03/19 06:40:28;;;;;;;;;;;1.80;99.90;;;;;;13186098;22;19938;-88
2021/03/19 06:45:29;;;;;;;;;;;2.30;99.90;;;;;;13159142;22;20298;-88
2021/03/19 06:50:36;;;;;;;;;;;4.90;99.90;;;;;;13158596;22;19950;-89
2021/03/19 06:55:51;;;;;;;;;;;3.40;99.90;;;;;;13158428;22;20322;-89
2021/03/19 07:00:54;;;;;;;;;;;6.10;99.90;;;;;;13159316;22;19950;-89
2021/03/19 07:06:09;;;;;;;;;;;4.20;99.90;;;;;;13158563;22;19985;-89
2021/03/19 07:11:16;;;;;;;;;;;5.30;99.90;;;;;;13158363;22;19960;-90
2021/03/19 07:16:18;;;;;;;;;;;5.70;99.90;;;;;;13158657;22;20322;-91
2021/03/19 07:21:27;;;;;;;;;;;7.80;99.90;;;;;;13159617;22;19918;-92
2021/03/19 07:26:30;;;;;;;;;;;6.80;99.90;;;;;;13187219;22;19919;-92
2021/03/19 07:31:40;;;;;;;;;;;6.90;99.90;;;;;;13186906;22;20335;-92
2021/03/19 07:37:00;;;;;;;;;;;8.10;99.90;;;;;;13159903;22;19922;-93
2021/03/19 07:42:10;;;;;;;;;;;7.20;99.90;;;;;;13159462;22;19918;-93
2021/03/19 07:47:26;;;;;;;;;;;8.20;99.90;;;;;;13159628;22;19922;-92
2021/03/19 07:52:28;;;;;;;;;;;;;;;;;;13158674;22;19919;-93
2021/03/19 07:57:34;;;;;;;;;;;7.60;99.90;;;;;;13158294;22;19918;-92
2021/03/19 08:02:42;;;;;;;;;;;8.10;99.90;;;;;;13159364;22;19922;-91
2021/03/19 08:07:44;;;;;;;;;;;;;;;;;;13184685;22;19989;-91
2021/03/19 08:12:51;;;;;;;;;;;7.90;98.70;;;;;;13158685;22;19918;-91
2021/03/19 08:17:58;;;;;;;;;;;8.60;99.90;;;;;;13157617;22;20338;-91
2021/03/19 08:23:32;;;;;;;;;;;9.30;99.70;;;;;;13158301;22;19918;-92
2021/03/19 08:28:41;;;;;;;;;;;8.80;95.70;;;;;;13058062;22;19930;-92
2021/03/19 08:33:58;;;;;;;;;;;9.70;96.50;;;;;;13157587;22;20343;-91
2021/03/19 08:39:03;;;;;;;;;;;9.40;91.90;;;;;;13159202;22;19981;-91
2021/03/19 08:44:06;;;;;;;;;;;10.10;90.40;;;;;;13156961;22;19947;-91
2021/03/19 08:49:13;;;;;;;;;;;10.30;87.30;;;;;;13157177;22;19941;-91
2021/03/19 08:54:16;;;;;;;;;;;10.30;81.30;;;;;;13156661;22;19918;-91
2021/03/19 08:59:33;;;;;;;;;;;10.10;84.20;;;;;;13161033;22;20288;-91
2021/03/19 09:04:53;;;;;;;;;;;9.90;80.30;;;;;;13156922;22;20308;-91
2021/03/19 09:09:56;;;;;;;;;;;10.40;76.70;;;;;;13156485;22;19925;-90
2021/03/19 09:15:15;;;;;;;;;;;10.50;80.80;;;;;;13156429;22;20295;-91
2021/03/19 09:20:22;;;;;;;;;;;10.70;80.40;;;;;;13156024;22;19918;-91
2021/03/19 09:25:35;;;;;;;;;;;10.70;82.00;;;;;;13156823;22;19918;-91
2021/03/19 09:30:42;;;;;;;;;;;11.40;70.70;;;;;;13156057;22;20304;-90
2021/03/19 09:35:45;;;;;;;;;;;10.90;72.60;;;;;;13156704;22;19953;-91
2021/03/19 09:40:50;;;;;;;;;;;10.30;71.20;;;;;;13158741;22;20326;-90
2021/03/19 09:46:00;;;;;;;;;;;9.70;74.50;;;;;;13160621;22;19941;-90
2021/03/19 09:51:05;;;;;;;;;;;11.30;75.90;;;;;;13159711;22;20327;-90
2021/03/19 09:56:18;;;;;;;;;;;11.50;74.50;;;;;;13161199;22;19926;-90
2021/03/19 10:01:28;;;;;;;;;;;12.60;74.90;;;;;;13159253;22;19941;-90
2021/03/19 10:06:34;;;;;;;;;;;12.00;78.20;;;;;;13158963;22;19985;-90
2021/03/19 10:11:48;;;;;;;;;;;12.00;64.80;;;;;;13160013;22;19985;-90
2021/03/19 10:16:49;;;;;;;;;;;11.00;73.40;;;;;;13159242;22;19950;-90
2021/03/19 10:22:03;;;;;;;;;;;12.10;67.80;;;;;;13162934;22;19924;-89
2021/03/19 10:27:10;;;;;;;;;;;12.20;70.40;;;;;;13158827;22;19941;-90
2021/03/19 10:32:14;;;;;;;;;;;11.70;64.80;;;;;;13158705;22;20343;-90
2021/03/19 10:37:21;;;;;;;;;;;12.10;69.30;;;;;;13158997;22;20351;-90
2021/03/19 10:42:32;;;;;;;;;;;11.60;62.70;;;;;;13158778;22;20254;-90
2021/03/19 10:47:38;;;;;;;;;;;12.30;69.00;;;;;;13161014;22;19981;-90
2021/03/19 10:52:47;;;;;;;;;;;12.40;64.30;;;;;;13158056;22;20297;-90
2021/03/19 10:57:55;;;;;;;;;;;;;;;;;;13158381;22;20319;-90
2021/03/19 11:02:57;;;;;;;;;;;11.40;63.70;;;;;;13150589;22;19936;-90
2021/03/19 11:08:13;;;;;;;;;;;11.40;66.40;;;;;;13063531;22;19926;-91
2021/03/19 11:13:14;;;;;;;;;;;12.10;70.70;;;;;;13093367;22;20010;-91
2021/03/19 11:18:22;;;;;;;;;;;11.70;69.20;;;;;;13092923;22;19968;-91
2021/03/19 11:23:35;;;;;;;;;;;12.00;65.00;;;;;;13093659;22;19924;-91
2021/03/19 11:28:39;;;;;;;;;;;13.00;65.40;;;;;;13093657;22;19925;-91
2021/03/19 11:33:54;;;;;;;;;;;11.70;66.80;;;;;;13092795;22;19918;-91
2021/03/19 11:39:09;;;;;;;;;;;12.10;67.00;;;;;;13093387;22;19918;-91
2021/03/19 11:44:13;;;;;;;;;;;12.20;65.60;;;;;;13093247;22;19919;-91
2021/03/19 11:49:16;;;;;;;;;;;12.00;69.10;;;;;;13093666;22;19922;-91
2021/03/19 11:54:19;;;;;;;;;;;11.90;66.00;;;;;;13067251;22;19918;-91
2021/03/19 11:59:22;;;;;;;;;;;12.90;67.20;;;;;;13067345;22;20255;-90
2021/03/19 12:04:24;;;;;;;;;;;11.80;67.70;;;;;;13088429;22;19958;-90
2021/03/19 12:09:27;;;;;;;;;;;11.00;65.80;;;;;;13157724;22;19919;-90
2021/03/19 12:14:29;;;;;;;;;;;11.10;64.60;;;;;;13132384;22;19922;-90
2021/03/19 12:19:30;;;;;;;;;;;;;;;;;;13131488;22;19949;-90
2021/03/19 12:24:32;;;;;;;;;;;10.40;64.40;;;;;;13156707;22;19918;-90
2021/03/19 12:29:35;;;;;;;;;;;11.00;65.60;;;;;;13157469;22;19950;-90
2021/03/19 12:34:36;;;;;;;;;;;11.00;70.80;;;;;;13156485;22;19925;-90
2021/03/19 12:39:37;;;;;;;;;;;10.60;62.90;;;;;;13131034;22;19946;-90
2021/03/19 12:44:39;;;;;;;;;;;10.60;64.50;;;;;;13157050;22;19918;-90
2021/03/19 12:49:40;;;;;;;;;;;11.30;60.40;;;;;;13130912;22;19993;-90
2021/03/19 12:54:41;;;;;;;;;;;10.60;60.30;;;;;;13130603;22;19946;-90
2021/03/19 12:59:43;;;;;;;;;;;11.40;63.30;;;;;;13157036;22;19994;-90
2021/03/19 13:04:44;;;;;;;;;;;11.10;61.20;;;;;;13156031;22;19919;-90
2021/03/19 13:09:45;;;;;;;;;;;10.70;64.30;;;;;;13156527;22;19989;-90
2021/03/19 13:14:46;;;;;;;;;;;10.80;58.50;;;;;;13129408;22;20414;-90
2021/03/19 13:19:48;;;;;;;;;;;10.80;61.20;;;;;;13155045;22;19942;-90
2021/03/19 13:24:49;;;;;;;;;;;11.20;60.30;;;;;;13127773;22;19957;-90
2021/03/19 13:29:50;;;;;;;;;;;11.60;61.90;;;;;;13182891;22;20592;-90
2021/03/19 13:34:52;;;;;;;;;;;11.70;62.80;;;;;;13130237;22;19942;-90
2021/03/19 13:39:53;;;;;;;;;;;11.30;58.00;;;;;;13130224;22;19922;-89
2021/03/19 13:44:54;;;;;;;;;;;11.20;59.10;;;;;;13128890;22;19918;-90
2021/03/19 13:49:56;;;;;;;;;;;11.20;61.80;;;;;;13129246;22;20303;-89
2021/03/19 13:54:57;;;;;;;;;;;11.60;58.50;;;;;;13155438;22;20009;-89
2021/03/19 13:59:58;;;;;;;;;;;11.60;60.10;;;;;;13129829;22;19985;-90
2021/03/19 14:04:59;;;;;;;;;;;11.60;59.80;;;;;;13129341;22;19924;-89
2021/03/19 14:10:01;;;;;;;;;;;10.60;61.20;;;;;;13128981;22;20346;-89
2021/03/19 14:15:03;;;;;;;;;;;10.80;63.00;;;;;;13129729;22;19925;-90
2021/03/19 14:20:07;;;;;;;;;;;10.90;59.80;;;;;;13155398;22;19945;-89
2021/03/19 14:25:08;;;;;;;;;;;11.00;62.80;;;;;;13155992;22;20378;-89
2021/03/19 14:30:09;;;;;;;;;;;11.20;64.40;;;;;;13133634;22;19957;-90
2021/03/19 14:35:11;;;;;;;;;;;11.20;62.90;;;;;;13159570;22;19965;-89
2021/03/19 14:40:18;;;;;;;;;;;11.50;60.30;;;;;;13187062;22;19922;-89
2021/03/19 14:45:19;;;;;;;;;;;10.60;66.20;;;;;;13159254;22;19918;-89
2021/03/19 14:50:22;;;;;;;;;;;9.90;70.10;;;;;;13158295;22;19985;-89
2021/03/19 14:55:24;;;;;;;;;;;10.50;72.80;;;;;;13158775;22;19929;-89
2021/03/19 15:00:30;;;;;;;;;;;9.80;70.60;;;;;;13158811;22;20011;-89
2021/03/19 15:05:32;;;;;;;;;;;9.40;69.80;;;;;;13157808;22;20273;-89
2021/03/19 15:10:35;;;;;;;;;;;9.60;78.90;;;;;;13157837;22;20349;-89
2021/03/19 15:15:37;;;;;;;;;;;9.70;76.90;;;;;;13158731;22;19919;-90
2021/03/19 15:20:45;;;;;;;;;;;9.60;77.10;;;;;;13158271;22;19918;-90
2021/03/19 15:25:50;;;;;;;;;;;9.40;81.70;;;;;;13158272;22;19919;-90
2021/03/19 15:30:51;;;;;;;;;;;9.70;85.40;;;;;;13158314;22;19925;-90
2021/03/19 15:35:53;;;;;;;;;;;9.10;81.50;;;;;;13185233;22;19983;-89
2021/03/19 15:40:56;;;;;;;;;;;8.60;87.50;;;;;;13158073;22;19992;-89
2021/03/19 15:45:57;;;;;;;;;;;8.50;89.60;;;;;;13157764;22;19953;-89
2021/03/19 15:51:00;;;;;;;;;;;8.60;91.10;;;;;;13156446;22;19985;-89
2021/03/19 15:56:01;;;;;;;;;;;8.60;92.50;;;;;;13155784;22;19986;-90
2021/03/19 16:01:03;;;;;;;;;;;8.40;94.50;;;;;;13185224;22;19932;-89
2021/03/19 16:06:04;;;;;;;;;;;8.30;95.00;;;;;;13156804;22;19918;-89
2021/03/19 16:11:10;;;;;;;;;;;8.70;95.90;;;;;;13130742;22;20303;-89
2021/03/19 16:16:12;;;;;;;;;;;9.30;93.00;;;;;;13156504;22;19918;-89
2021/03/19 16:21:13;;;;;;;;;;;8.50;95.30;;;;;;13130021;22;19918;-90
2021/03/19 16:26:14;;;;;;;;;;;8.90;96.30;;;;;;13156989;22;19925;-90
2021/03/19 16:31:16;;;;;;;;;;;8.20;96.10;;;;;;13156830;22;20001;-90
2021/03/19 16:36:17;;;;;;;;;;;8.20;96.00;;;;;;13130220;22;19934;-90
2021/03/19 16:41:31;;;;;;;;;;;8.10;98.70;;;;;;13138543;22;19918;-89
2021/03/19 16:46:32;;;;;;;;;;;8.20;98.00;;;;;;13155674;22;19918;-90
2021/03/19 16:51:34;;;;;;;;;;;8.00;99.30;;;;;;13155714;22;20305;-90
2021/03/19 16:56:36;;;;;;;;;;;7.70;99.90;;;;;;13130852;22;19919;-90
2021/03/19 17:01:37;;;;;;;;;;;7.50;99.90;;;;;;13156146;22;19985;-90
2021/03/19 17:06:39;;;;;;;;;;;7.40;99.90;;;;;;13069344;22;1322668;-91
2021/03/19 17:11:43;;;;;;;;;;;7.10;99.90;;;;;;13133529;22;19967;-91
2021/03/19 17:16:45;;;;;;;;;;;7.00;99.90;;;;;;13158278;22;19918;-91
2021/03/19 17:21:46;;;;;;;;;;;7.80;99.90;;;;;;13131106;22;19937;-91
2021/03/19 17:26:48;;;;;;;;;;;8.00;99.90;;;;;;13130916;22;19962;-91
2021/03/19 17:31:49;;;;;;;;;;;6.50;99.90;;;;;;13131390;22;19985;-91
2021/03/19 17:36:51;;;;;;;;;;;5.80;99.90;;;;;;13133856;22;19979;-92
2021/03/19 17:41:53;;;;;;;;;;;6.60;99.90;;;;;;13131448;22;19926;-91
2021/03/19 17:46:54;;;;;;;;;;;7.80;99.90;;;;;;13156471;22;20350;-91
2021/03/19 17:51:55;;;;;;;;;;;8.60;99.90;;;;;;13132171;22;19922;-94
2021/03/19 17:56:57;;;;;;;;;;;6.00;99.90;;;;;;13156779;22;19989;-93
2021/03/19 18:01:58;;;;;;;;;;;6.90;99.90;;;;;;13187045;22;19940;-94
2021/03/19 18:07:00;;;;;;;;;;;6.30;99.90;;;;;;13133060;22;19918;-94
2021/03/19 18:12:01;;;;;;;;;;;5.40;99.90;;;;;;13160208;22;20285;-94
2021/03/19 18:17:03;;;;;;;;;;;5.40;99.90;;;;;;13159043;22;19922;-94
2021/03/19 18:22:04;;;;;;;;;;;5.90;99.90;;;;;;13187655;22;19989;-93
2021/03/19 18:27:06;;;;;;;;;;;6.50;99.90;;;;;;13160419;22;19925;-94
2021/03/19 18:32:07;;;;;;;;;;;4.80;99.90;;;;;;13134706;22;19966;-94
2021/03/19 18:37:11;;;;;;;;;;;5.20;99.90;;;;;;13134393;22;19919;-94
2021/03/19 18:42:14;;;;;;;;;;;6.00;99.90;;;;;;13187027;22;20006;-94
2021/03/19 18:47:15;;;;;;;;;;;5.50;99.90;;;;;;13134848;22;19918;-94
2021/03/19 18:52:17;;;;;;;;;;;5.50;99.90;;;;;;13184602;22;19922;-93
2021/03/19 18:57:19;;;;;;;;;;;6.40;99.90;;;;;;13158806;22;20390;-94
2021/03/19 19:02:20;;;;;;;;;;;5.30;99.90;;;;;;13132882;22;19949;-93
2021/03/19 19:07:34;;;;;;;;;;;5.30;99.90;;;;;;13137769;22;19919;-93
2021/03/19 19:12:37;;;;;;;;;;;7.30;99.90;;;;;;13158586;22;19929;-93
2021/03/19 19:17:39;;;;;;;;;;;5.20;99.90;;;;;;13158065;22;20309;-94
2021/03/19 19:22:41;;;;;;;;;;;6.30;99.90;;;;;;13133613;22;19922;-93
2021/03/19 19:27:43;;;;;;;;;;;5.90;99.90;;;;;;13155918;22;19985;-93
2021/03/19 19:32:44;;;;;;;;;;;5.30;99.90;;;;;;13132642;22;19950;-93
2021/03/19 19:37:55;;;;;;;;;;;6.00;99.90;;;;;;13160724;22;20224;-93
2021/03/19 19:42:57;;;;;;;;;;;5.00;99.90;;;;;;13158376;22;20013;-93
2021/03/19 19:47:58;;;;;;;;;;;4.60;99.90;;;;;;13157441;22;19925;-93
2021/03/19 19:53:00;;;;;;;;;;;7.00;99.90;;;;;;13131298;22;20289;-93
2021/03/19 19:58:02;;;;;;;;;;;5.00;99.90;;;;;;13157524;22;19962;-93
2021/03/19 20:03:03;;;;;;;;;;;4.50;99.90;;;;;;13155650;22;19919;-93
2021/03/19 20:08:19;;;;;;;;;;;4.40;99.90;;;;;;13183959;22;20280;-93
2021/03/19 20:13:20;;;;;;;;;;;4.30;99.90;;;;;;13183945;22;19941;-93
2021/03/19 20:18:25;;;;;;;;;;;6.50;99.90;;;;;;13157336;22;19918;-93
2021/03/19 20:23:31;;;;;;;;;;;4.30;99.90;;;;;;13158426;22;19918;-93
2021/03/19 20:28:34;;;;;;;;;;;4.30;99.90;;;;;;13183155;22;20327;-93
2021/03/19 20:33:36;;;;;;;;;;;5.00;99.90;;;;;;13152563;22;19988;-93
2021/03/19 20:38:43;;;;;;;;;;;4.10;99.90;;;;;;13127713;22;19944;-92
2021/03/19 20:43:44;;;;;;;;;;;4.10;99.90;;;;;;13154924;22;20247;-93
2021/03/19 20:48:45;;;;;;;;;;;6.30;99.90;;;;;;13129864;22;19924;-93
2021/03/19 20:53:47;;;;;;;;;;;4.20;99.90;;;;;;13131349;22;19989;-92
2021/03/19 20:58:49;;;;;;;;;;;4.00;99.90;;;;;;13155695;22;19918;-93
2021/03/19 21:03:51;;;;;;;;;;;3.80;99.90;;;;;;13130039;22;20327;-93
2021/03/19 21:09:08;;;;;;;;;;;3.80;99.90;;;;;;13157778;22;19945;-93
2021/03/19 21:14:10;;;;;;;;;;;3.80;99.90;;;;;;13151468;22;19922;-93
2021/03/19 21:19:16;;;;;;;;;;;3.60;99.90;;;;;;13152424;22;19922;-93
2021/03/19 21:24:18;;;;;;;;;;;3.50;99.90;;;;;;13156081;22;19945;-94
2021/03/19 21:29:20;;;;;;;;;;;5.30;99.90;;;;;;13157442;22;19949;-93
2021/03/19 21:34:22;;;;;;;;;;;5.00;99.90;;;;;;13156741;22;19918;-93
2021/03/19 21:39:28;;;;;;;;;;;3.10;99.90;;;;;;13157028;22;19918;-93
2021/03/19 21:44:29;;;;;;;;;;;5.00;99.90;;;;;;13156132;22;20005;-93
2021/03/19 21:49:31;;;;;;;;;;;3.50;99.90;;;;;;13155622;22;19938;-93
2021/03/19 21:54:32;;;;;;;;;;;3.00;99.90;;;;;;13156679;22;20020;-93
2021/03/19 21:59:33;;;;;;;;;;;2.90;99.90;;;;;;13157422;22;19919;-93
2021/03/19 22:04:35;;;;;;;;;;;5.60;99.90;;;;;;13155751;22;19997;-92
2021/03/19 22:09:45;;;;;;;;;;;2.70;99.90;;;;;;13134415;22;19918;-93
2021/03/19 22:14:47;;;;;;;;;;;2.60;99.90;;;;;;13131445;22;19929;-93
2021/03/19 22:19:48;;;;;;;;;;;2.50;99.90;;;;;;13130240;22;19918;-93
2021/03/19 22:24:49;;;;;;;;;;;2.40;99.90;;;;;;13131356;22;19926;-91
2021/03/19 22:29:51;;;;;;;;;;;2.20;99.90;;;;;;13156378;22;19918;-93
2021/03/19 22:34:52;;;;;;;;;;;4.50;99.90;;;;;;13157103;22;19946;-91
2021/03/19 22:40:09;;;;;;;;;;;2.10;99.90;;;;;;13160545;22;19922;-91
2021/03/19 22:45:11;;;;;;;;;;;2.10;99.90;;;;;;13156735;22;20294;-93
2021/03/19 22:50:14;;;;;;;;;;;2.00;99.90;;;;;;13160949;22;19981;-93
2021/03/19 22:55:17;;;;;;;;;;;1.90;99.90;;;;;;13160453;22;19961;-91
2021/03/19 23:00:24;;;;;;;;;;;4.50;99.90;;;;;;13160531;22;19989;-93
2021/03/19 23:05:26;;;;;;;;;;;1.80;99.90;;;;;;13159596;22;20327;-93
2021/03/19 23:10:34;;;;;;;;;;;1.70;99.90;;;;;;13135695;22;19989;-93
2021/03/19 23:15:39;;;;;;;;;;;1.60;99.90;;;;;;13160622;22;20367;-93
2021/03/19 23:20:41;;;;;;;;;;;2.90;99.90;;;;;;13134228;22;19922;-93
2021/03/19 23:25:43;;;;;;;;;;;1.70;99.90;;;;;;13159386;22;20319;-93
2021/03/19 23:30:46;;;;;;;;;;;3.60;99.90;;;;;;13159548;22;19918;-93
2021/03/19 23:35:49;;;;;;;;;;;1.80;99.90;;;;;;13159165;22;20258;-93
2021/03/19 23:41:00;;;;;;;;;;;1.80;99.90;;;;;;13160008;22;19981;-93
2021/03/19 23:46:12;;;;;;;;;;;1.80;99.90;;;;;;13159367;22;19997;-93
2021/03/19 23:51:15;;;;;;;;;;;2.10;99.90;;;;;;13159673;22;19918;-93
2021/03/19 23:56:17;;;;;;;;;;;1.70;99.90;;;;;;13184277;22;20243;-93
